sensor_id;sensor_type;location;lat;lon;timestamp;P1;durP1;ratioP1;P2;durP2;ratioP2
78752;SDS011;68072;51.688;7.842;2023-09-07T00:01:14;7.27;;;3.93;;
78752;SDS011;68072;51.688;7.842;2023-09-07T00:03:39;6.53;;;3.80;;
78752;SDS011;68072;51.688;7.842;2023-09-07T00:06:06;6.32;;;3.85;;
78752;SDS011;68072;51.688;7.842;2023-09-07T00:08:31;4.55;;;3.70;;
78752;SDS011;68072;51.688;7.842;2023-09-07T00:11:02;5.15;;;3.63;;
78752;SDS011;68072;51.688;7.842;2023-09-07T00:13:27;6.72;;;3.83;;
78752;SDS011;68072;51.688;7.842;2023-09-07T00:15:53;9.30;;;4.20;;
78752;SDS011;68072;51.688;7.842;2023-09-07T00:20:43;5.47;;;3.58;;
78752;SDS011;68072;51.688;7.842;2023-09-07T00:23:08;4.00;;;3.43;;
78752;SDS011;68072;51.688;7.842;2023-09-07T00:25:33;4.03;;;3.60;;
78752;SDS011;68072;51.688;7.842;2023-09-07T00:27:59;5.97;;;3.33;;
78752;SDS011;68072;51.688;7.842;2023-09-07T00:30:24;4.80;;;3.93;;
78752;SDS011;68072;51.688;7.842;2023-09-07T00:32:49;6.30;;;3.60;;
78752;SDS011;68072;51.688;7.842;2023-09-07T00:35:14;4.80;;;3.60;;
78752;SDS011;68072;51.688;7.842;2023-09-07T00:37:40;7.07;;;4.20;;
78752;SDS011;68072;51.688;7.842;2023-09-07T00:40:06;4.87;;;3.97;;
78752;SDS011;68072;51.688;7.842;2023-09-07T00:42:34;6.60;;;3.90;;
78752;SDS011;68072;51.688;7.842;2023-09-07T00:44:59;9.18;;;3.95;;
78752;SDS011;68072;51.688;7.842;2023-09-07T00:47:24;7.13;;;3.70;;
78752;SDS011;68072;51.688;7.842;2023-09-07T00:49:49;4.63;;;4.10;;
78752;SDS011;68072;51.688;7.842;2023-09-07T00:52:15;4.90;;;4.03;;
78752;SDS011;68072;51.688;7.842;2023-09-07T00:54:41;5.25;;;3.90;;
78752;SDS011;68072;51.688;7.842;2023-09-07T00:57:07;5.10;;;4.57;;
78752;SDS011;68072;51.688;7.842;2023-09-07T00:59:32;5.50;;;3.93;;
78752;SDS011;68072;51.688;7.842;2023-09-07T01:01:58;6.45;;;3.78;;
78752;SDS011;68072;51.688;7.842;2023-09-07T01:04:23;7.00;;;3.93;;
78752;SDS011;68072;51.688;7.842;2023-09-07T01:06:52;7.28;;;4.25;;
78752;SDS011;68072;51.688;7.842;2023-09-07T01:09:21;7.60;;;4.03;;
78752;SDS011;68072;51.688;7.842;2023-09-07T01:11:48;6.30;;;4.18;;
78752;SDS011;68072;51.688;7.842;2023-09-07T01:14:13;9.90;;;4.40;;
78752;SDS011;68072;51.688;7.842;2023-09-07T01:16:38;7.40;;;4.90;;
78752;SDS011;68072;51.688;7.842;2023-09-07T01:19:07;7.10;;;4.32;;
78752;SDS011;68072;51.688;7.842;2023-09-07T01:21:37;8.30;;;4.50;;
78752;SDS011;68072;51.688;7.842;2023-09-07T01:24:11;7.35;;;4.50;;
78752;SDS011;68072;51.688;7.842;2023-09-07T01:26:37;8.27;;;4.47;;
78752;SDS011;68072;51.688;7.842;2023-09-07T01:29:06;6.32;;;4.50;;
78752;SDS011;68072;51.688;7.842;2023-09-07T01:31:34;5.00;;;4.07;;
78752;SDS011;68072;51.688;7.842;2023-09-07T01:33:59;5.25;;;4.25;;
78752;SDS011;68072;51.688;7.842;2023-09-07T01:36:24;5.33;;;4.33;;
78752;SDS011;68072;51.688;7.842;2023-09-07T01:38:50;5.90;;;4.67;;
78752;SDS011;68072;51.688;7.842;2023-09-07T01:41:15;8.33;;;4.07;;
78752;SDS011;68072;51.688;7.842;2023-09-07T01:43:40;11.83;;;4.57;;
78752;SDS011;68072;51.688;7.842;2023-09-07T01:46:05;5.73;;;4.73;;
78752;SDS011;68072;51.688;7.842;2023-09-07T01:48:30;5.97;;;4.80;;
78752;SDS011;68072;51.688;7.842;2023-09-07T01:50:56;9.43;;;4.40;;
78752;SDS011;68072;51.688;7.842;2023-09-07T01:53:21;6.90;;;4.37;;
78752;SDS011;68072;51.688;7.842;2023-09-07T01:55:46;8.07;;;4.83;;
78752;SDS011;68072;51.688;7.842;2023-09-07T02:00:38;6.93;;;5.28;;
78752;SDS011;68072;51.688;7.842;2023-09-07T02:03:04;7.60;;;5.05;;
78752;SDS011;68072;51.688;7.842;2023-09-07T02:05:29;6.10;;;4.93;;
78752;SDS011;68072;51.688;7.842;2023-09-07T02:07:55;9.83;;;5.20;;
78752;SDS011;68072;51.688;7.842;2023-09-07T02:10:20;7.97;;;5.43;;
78752;SDS011;68072;51.688;7.842;2023-09-07T02:12:45;6.80;;;5.23;;
78752;SDS011;68072;51.688;7.842;2023-09-07T02:15:11;6.90;;;5.10;;
78752;SDS011;68072;51.688;7.842;2023-09-07T02:17:36;8.73;;;5.70;;
78752;SDS011;68072;51.688;7.842;2023-09-07T02:20:01;6.23;;;5.13;;
78752;SDS011;68072;51.688;7.842;2023-09-07T02:22:32;8.30;;;5.88;;
78752;SDS011;68072;51.688;7.842;2023-09-07T02:24:58;7.53;;;5.30;;
78752;SDS011;68072;51.688;7.842;2023-09-07T02:27:23;7.20;;;5.33;;
78752;SDS011;68072;51.688;7.842;2023-09-07T02:29:48;13.03;;;6.57;;
78752;SDS011;68072;51.688;7.842;2023-09-07T02:32:13;12.60;;;4.87;;
78752;SDS011;68072;51.688;7.842;2023-09-07T02:34:39;20.80;;;18.07;;
78752;SDS011;68072;51.688;7.842;2023-09-07T02:37:04;29.90;;;26.83;;
78752;SDS011;68072;51.688;7.842;2023-09-07T02:39:29;7.95;;;4.70;;
78752;SDS011;68072;51.688;7.842;2023-09-07T02:41:55;7.00;;;4.15;;
78752;SDS011;68072;51.688;7.842;2023-09-07T02:44:20;9.30;;;4.80;;
78752;SDS011;68072;51.688;7.842;2023-09-07T02:46:45;6.60;;;4.67;;
78752;SDS011;68072;51.688;7.842;2023-09-07T02:49:11;6.10;;;4.70;;
78752;SDS011;68072;51.688;7.842;2023-09-07T02:51:36;9.50;;;4.53;;
78752;SDS011;68072;51.688;7.842;2023-09-07T02:54:02;6.63;;;4.67;;
78752;SDS011;68072;51.688;7.842;2023-09-07T02:56:27;7.35;;;4.50;;
78752;SDS011;68072;51.688;7.842;2023-09-07T02:58:53;6.50;;;4.37;;
78752;SDS011;68072;51.688;7.842;2023-09-07T03:01:18;6.80;;;4.77;;
78752;SDS011;68072;51.688;7.842;2023-09-07T03:03:45;7.15;;;4.22;;
78752;SDS011;68072;51.688;7.842;2023-09-07T03:06:11;6.60;;;4.60;;
78752;SDS011;68072;51.688;7.842;2023-09-07T03:08:37;7.40;;;4.30;;
78752;SDS011;68072;51.688;7.842;2023-09-07T03:11:03;7.03;;;4.37;;
78752;SDS011;68072;51.688;7.842;2023-09-07T03:13:29;10.80;;;5.00;;
78752;SDS011;68072;51.688;7.842;2023-09-07T03:15:54;4.90;;;4.00;;
78752;SDS011;68072;51.688;7.842;2023-09-07T03:18:20;5.60;;;4.10;;
78752;SDS011;68072;51.688;7.842;2023-09-07T03:20:46;6.53;;;4.90;;
78752;SDS011;68072;51.688;7.842;2023-09-07T03:23:12;10.32;;;4.20;;
78752;SDS011;68072;51.688;7.842;2023-09-07T03:25:37;8.27;;;4.77;;
78752;SDS011;68072;51.688;7.842;2023-09-07T03:28:02;9.70;;;5.13;;
78752;SDS011;68072;51.688;7.842;2023-09-07T03:30:28;5.93;;;4.43;;
78752;SDS011;68072;51.688;7.842;2023-09-07T03:32:53;6.87;;;4.43;;
78752;SDS011;68072;51.688;7.842;2023-09-07T03:35:19;6.73;;;4.87;;
78752;SDS011;68072;51.688;7.842;2023-09-07T03:37:44;6.80;;;4.60;;
78752;SDS011;68072;51.688;7.842;2023-09-07T03:40:09;8.23;;;5.20;;
78752;SDS011;68072;51.688;7.842;2023-09-07T03:42:35;8.45;;;5.47;;
78752;SDS011;68072;51.688;7.842;2023-09-07T03:45:00;12.75;;;5.65;;
78752;SDS011;68072;51.688;7.842;2023-09-07T03:47:26;8.98;;;5.75;;
78752;SDS011;68072;51.688;7.842;2023-09-07T03:49:54;6.50;;;4.78;;
78752;SDS011;68072;51.688;7.842;2023-09-07T03:52:19;8.95;;;5.05;;
78752;SDS011;68072;51.688;7.842;2023-09-07T03:54:47;5.13;;;4.40;;
78752;SDS011;68072;51.688;7.842;2023-09-07T03:57:12;8.17;;;4.63;;
78752;SDS011;68072;51.688;7.842;2023-09-07T03:59:37;8.30;;;5.10;;
78752;SDS011;68072;51.688;7.842;2023-09-07T04:02:03;7.55;;;5.15;;
78752;SDS011;68072;51.688;7.842;2023-09-07T04:04:28;7.78;;;5.55;;
78752;SDS011;68072;51.688;7.842;2023-09-07T04:06:53;7.15;;;4.82;;
78752;SDS011;68072;51.688;7.842;2023-09-07T04:09:18;6.33;;;4.73;;
78752;SDS011;68072;51.688;7.842;2023-09-07T04:11:44;6.70;;;5.20;;
78752;SDS011;68072;51.688;7.842;2023-09-07T04:14:09;6.60;;;4.83;;
78752;SDS011;68072;51.688;7.842;2023-09-07T04:16:34;8.60;;;4.87;;
78752;SDS011;68072;51.688;7.842;2023-09-07T04:18:59;6.63;;;4.63;;
78752;SDS011;68072;51.688;7.842;2023-09-07T04:21:25;6.90;;;4.50;;
78752;SDS011;68072;51.688;7.842;2023-09-07T04:23:50;7.57;;;4.70;;
78752;SDS011;68072;51.688;7.842;2023-09-07T04:26:15;5.20;;;3.83;;
78752;SDS011;68072;51.688;7.842;2023-09-07T04:28:40;4.37;;;3.97;;
78752;SDS011;68072;51.688;7.842;2023-09-07T04:31:06;6.77;;;4.10;;
78752;SDS011;68072;51.688;7.842;2023-09-07T04:33:34;7.43;;;3.90;;
78752;SDS011;68072;51.688;7.842;2023-09-07T04:38:33;6.07;;;4.80;;
78752;SDS011;68072;51.688;7.842;2023-09-07T04:41:09;7.30;;;5.88;;
78752;SDS011;68072;51.688;7.842;2023-09-07T04:43:34;7.85;;;5.80;;
78752;SDS011;68072;51.688;7.842;2023-09-07T04:45:59;7.22;;;5.35;;
78752;SDS011;68072;51.688;7.842;2023-09-07T04:48:25;5.50;;;4.90;;
78752;SDS011;68072;51.688;7.842;2023-09-07T04:51:03;7.97;;;5.43;;
78752;SDS011;68072;51.688;7.842;2023-09-07T04:53:29;10.88;;;5.95;;
78752;SDS011;68072;51.688;7.842;2023-09-07T04:55:55;7.13;;;5.28;;
78752;SDS011;68072;51.688;7.842;2023-09-07T04:58:21;11.70;;;5.53;;
78752;SDS011;68072;51.688;7.842;2023-09-07T05:00:46;7.23;;;4.77;;
78752;SDS011;68072;51.688;7.842;2023-09-07T05:03:11;9.93;;;4.77;;
78752;SDS011;68072;51.688;7.842;2023-09-07T05:05:38;7.55;;;5.43;;
78752;SDS011;68072;51.688;7.842;2023-09-07T05:08:03;5.97;;;4.82;;
78752;SDS011;68072;51.688;7.842;2023-09-07T05:10:30;6.55;;;5.03;;
78752;SDS011;68072;51.688;7.842;2023-09-07T05:12:55;9.70;;;5.30;;
78752;SDS011;68072;51.688;7.842;2023-09-07T05:15:20;10.47;;;5.73;;
78752;SDS011;68072;51.688;7.842;2023-09-07T05:17:46;10.35;;;5.45;;
78752;SDS011;68072;51.688;7.842;2023-09-07T05:20:11;7.60;;;5.57;;
78752;SDS011;68072;51.688;7.842;2023-09-07T05:22:36;8.60;;;5.65;;
78752;SDS011;68072;51.688;7.842;2023-09-07T05:25:04;9.85;;;5.97;;
78752;SDS011;68072;51.688;7.842;2023-09-07T05:27:30;12.15;;;6.07;;
78752;SDS011;68072;51.688;7.842;2023-09-07T05:29:55;8.37;;;5.97;;
78752;SDS011;68072;51.688;7.842;2023-09-07T05:32:20;9.40;;;5.57;;
78752;SDS011;68072;51.688;7.842;2023-09-07T05:34:45;9.53;;;6.50;;
78752;SDS011;68072;51.688;7.842;2023-09-07T05:37:11;9.87;;;6.53;;
78752;SDS011;68072;51.688;7.842;2023-09-07T05:39:36;9.47;;;6.40;;
78752;SDS011;68072;51.688;7.842;2023-09-07T05:42:01;8.07;;;6.50;;
78752;SDS011;68072;51.688;7.842;2023-09-07T05:44:26;13.73;;;7.13;;
78752;SDS011;68072;51.688;7.842;2023-09-07T05:46:51;12.63;;;7.00;;
78752;SDS011;68072;51.688;7.842;2023-09-07T05:49:17;10.00;;;6.63;;
78752;SDS011;68072;51.688;7.842;2023-09-07T05:51:45;10.07;;;6.45;;
78752;SDS011;68072;51.688;7.842;2023-09-07T05:54:10;7.67;;;5.80;;
78752;SDS011;68072;51.688;7.842;2023-09-07T05:56:35;8.40;;;5.90;;
78752;SDS011;68072;51.688;7.842;2023-09-07T05:59:01;9.20;;;5.83;;
78752;SDS011;68072;51.688;7.842;2023-09-07T06:01:26;11.27;;;5.73;;
78752;SDS011;68072;51.688;7.842;2023-09-07T06:03:51;7.70;;;5.53;;
78752;SDS011;68072;51.688;7.842;2023-09-07T06:06:16;7.00;;;5.40;;
78752;SDS011;68072;51.688;7.842;2023-09-07T06:08:42;9.33;;;5.43;;
78752;SDS011;68072;51.688;7.842;2023-09-07T06:11:07;6.40;;;5.13;;
78752;SDS011;68072;51.688;7.842;2023-09-07T06:13:32;8.53;;;6.23;;
78752;SDS011;68072;51.688;7.842;2023-09-07T06:15:57;8.18;;;4.97;;
78752;SDS011;68072;51.688;7.842;2023-09-07T06:18:25;7.45;;;4.93;;
78752;SDS011;68072;51.688;7.842;2023-09-07T06:20:50;12.23;;;4.60;;
78752;SDS011;68072;51.688;7.842;2023-09-07T06:23:16;6.20;;;4.07;;
78752;SDS011;68072;51.688;7.842;2023-09-07T06:25:41;5.85;;;4.13;;
78752;SDS011;68072;51.688;7.842;2023-09-07T06:28:06;6.25;;;4.50;;
78752;SDS011;68072;51.688;7.842;2023-09-07T06:30:32;7.33;;;4.40;;
78752;SDS011;68072;51.688;7.842;2023-09-07T06:32:57;6.15;;;4.05;;
78752;SDS011;68072;51.688;7.842;2023-09-07T06:37:47;7.93;;;4.00;;
78752;SDS011;68072;51.688;7.842;2023-09-07T06:40:13;7.87;;;4.33;;
78752;SDS011;68072;51.688;7.842;2023-09-07T06:42:39;5.88;;;4.47;;
78752;SDS011;68072;51.688;7.842;2023-09-07T06:45:05;4.10;;;3.50;;
78752;SDS011;68072;51.688;7.842;2023-09-07T06:49:56;6.80;;;3.63;;
78752;SDS011;68072;51.688;7.842;2023-09-07T06:54:46;5.18;;;3.90;;
78752;SDS011;68072;51.688;7.842;2023-09-07T06:59:37;5.47;;;3.60;;
78752;SDS011;68072;51.688;7.842;2023-09-07T07:02:02;5.20;;;3.47;;
78752;SDS011;68072;51.688;7.842;2023-09-07T07:04:29;5.93;;;3.50;;
78752;SDS011;68072;51.688;7.842;2023-09-07T07:06:55;7.13;;;3.60;;
78752;SDS011;68072;51.688;7.842;2023-09-07T07:11:45;5.65;;;3.55;;
78752;SDS011;68072;51.688;7.842;2023-09-07T07:14:10;8.43;;;3.97;;
78752;SDS011;68072;51.688;7.842;2023-09-07T07:16:37;6.47;;;3.65;;
78752;SDS011;68072;51.688;7.842;2023-09-07T07:21:27;6.78;;;3.53;;
78752;SDS011;68072;51.688;7.842;2023-09-07T07:23:52;7.20;;;3.83;;
78752;SDS011;68072;51.688;7.842;2023-09-07T07:26:17;4.33;;;3.50;;
78752;SDS011;68072;51.688;7.842;2023-09-07T07:28:43;8.33;;;3.37;;
78752;SDS011;68072;51.688;7.842;2023-09-07T07:31:08;4.60;;;3.60;;
78752;SDS011;68072;51.688;7.842;2023-09-07T07:33:34;6.32;;;3.38;;
78752;SDS011;68072;51.688;7.842;2023-09-07T07:35:59;6.13;;;3.17;;
78752;SDS011;68072;51.688;7.842;2023-09-07T07:38:24;5.17;;;3.20;;
78752;SDS011;68072;51.688;7.842;2023-09-07T07:40:50;9.60;;;3.47;;
78752;SDS011;68072;51.688;7.842;2023-09-07T07:43:16;4.82;;;2.83;;
78752;SDS011;68072;51.688;7.842;2023-09-07T07:45:42;3.73;;;3.30;;
78752;SDS011;68072;51.688;7.842;2023-09-07T07:48:07;4.80;;;3.83;;
78752;SDS011;68072;51.688;7.842;2023-09-07T07:50:36;5.93;;;3.38;;
78752;SDS011;68072;51.688;7.842;2023-09-07T07:53:01;7.25;;;3.13;;
78752;SDS011;68072;51.688;7.842;2023-09-07T07:55:26;4.90;;;3.20;;
78752;SDS011;68072;51.688;7.842;2023-09-07T07:57:52;4.37;;;3.40;;
78752;SDS011;68072;51.688;7.842;2023-09-07T08:00:17;4.43;;;3.10;;
78752;SDS011;68072;51.688;7.842;2023-09-07T08:02:42;6.35;;;3.58;;
78752;SDS011;68072;51.688;7.842;2023-09-07T08:05:09;3.75;;;2.95;;
78752;SDS011;68072;51.688;7.842;2023-09-07T08:07:34;6.57;;;3.70;;
78752;SDS011;68072;51.688;7.842;2023-09-07T08:09:59;7.73;;;2.90;;
78752;SDS011;68072;51.688;7.842;2023-09-07T08:12:24;5.63;;;3.27;;
78752;SDS011;68072;51.688;7.842;2023-09-07T08:14:49;5.80;;;3.60;;
78752;SDS011;68072;51.688;7.842;2023-09-07T08:17:15;6.37;;;3.20;;
78752;SDS011;68072;51.688;7.842;2023-09-07T08:19:40;7.07;;;3.07;;
78752;SDS011;68072;51.688;7.842;2023-09-07T08:22:05;5.07;;;3.43;;
78752;SDS011;68072;51.688;7.842;2023-09-07T08:24:31;5.32;;;3.35;;
78752;SDS011;68072;51.688;7.842;2023-09-07T08:26:56;6.72;;;3.45;;
78752;SDS011;68072;51.688;7.842;2023-09-07T08:29:23;6.38;;;3.70;;
78752;SDS011;68072;51.688;7.842;2023-09-07T08:31:51;5.70;;;3.25;;
78752;SDS011;68072;51.688;7.842;2023-09-07T08:34:17;5.18;;;3.10;;
78752;SDS011;68072;51.688;7.842;2023-09-07T08:36:45;7.47;;;3.33;;
78752;SDS011;68072;51.688;7.842;2023-09-07T08:39:12;5.13;;;3.28;;
78752;SDS011;68072;51.688;7.842;2023-09-07T08:41:40;5.50;;;3.30;;
78752;SDS011;68072;51.688;7.842;2023-09-07T08:44:14;4.38;;;3.05;;
78752;SDS011;68072;51.688;7.842;2023-09-07T08:46:40;4.90;;;3.17;;
78752;SDS011;68072;51.688;7.842;2023-09-07T08:49:05;4.28;;;3.08;;
78752;SDS011;68072;51.688;7.842;2023-09-07T08:51:31;3.90;;;3.23;;
78752;SDS011;68072;51.688;7.842;2023-09-07T08:54:04;5.93;;;3.65;;
78752;SDS011;68072;51.688;7.842;2023-09-07T08:56:30;3.67;;;3.20;;
78752;SDS011;68072;51.688;7.842;2023-09-07T08:58:56;4.63;;;3.20;;
78752;SDS011;68072;51.688;7.842;2023-09-07T09:01:21;4.77;;;3.90;;
78752;SDS011;68072;51.688;7.842;2023-09-07T09:03:47;6.85;;;3.83;;
78752;SDS011;68072;51.688;7.842;2023-09-07T09:06:13;4.25;;;3.42;;
78752;SDS011;68072;51.688;7.842;2023-09-07T09:08:42;6.32;;;3.22;;
78752;SDS011;68072;51.688;7.842;2023-09-07T09:11:08;3.75;;;3.30;;
78752;SDS011;68072;51.688;7.842;2023-09-07T09:13:34;5.00;;;3.00;;
78752;SDS011;68072;51.688;7.842;2023-09-07T09:15:59;4.23;;;3.37;;
78752;SDS011;68072;51.688;7.842;2023-09-07T09:18:27;5.18;;;3.00;;
78752;SDS011;68072;51.688;7.842;2023-09-07T09:20:56;3.50;;;3.20;;
78752;SDS011;68072;51.688;7.842;2023-09-07T09:23:24;3.92;;;3.53;;
78752;SDS011;68072;51.688;7.842;2023-09-07T09:25:49;3.80;;;3.27;;
78752;SDS011;68072;51.688;7.842;2023-09-07T09:28:14;5.00;;;3.40;;
78752;SDS011;68072;51.688;7.842;2023-09-07T09:30:39;7.27;;;3.87;;
78752;SDS011;68072;51.688;7.842;2023-09-07T09:33:08;4.20;;;3.20;;
78752;SDS011;68072;51.688;7.842;2023-09-07T09:35:34;4.07;;;3.38;;
78752;SDS011;68072;51.688;7.842;2023-09-07T09:38:00;3.70;;;2.70;;
78752;SDS011;68072;51.688;7.842;2023-09-07T09:40:26;3.53;;;3.00;;
78752;SDS011;68072;51.688;7.842;2023-09-07T09:42:51;4.00;;;3.58;;
78752;SDS011;68072;51.688;7.842;2023-09-07T09:45:17;5.37;;;3.30;;
78752;SDS011;68072;51.688;7.842;2023-09-07T09:47:42;4.77;;;3.00;;
78752;SDS011;68072;51.688;7.842;2023-09-07T09:50:08;3.85;;;3.13;;
78752;SDS011;68072;51.688;7.842;2023-09-07T09:52:34;5.32;;;3.30;;
78752;SDS011;68072;51.688;7.842;2023-09-07T09:55:02;5.22;;;3.55;;
78752;SDS011;68072;51.688;7.842;2023-09-07T09:57:28;4.07;;;3.28;;
78752;SDS011;68072;51.688;7.842;2023-09-07T09:59:54;4.03;;;2.80;;
78752;SDS011;68072;51.688;7.842;2023-09-07T10:02:19;6.97;;;3.10;;
78752;SDS011;68072;51.688;7.842;2023-09-07T10:04:45;4.07;;;3.17;;
78752;SDS011;68072;51.688;7.842;2023-09-07T10:07:10;4.03;;;3.13;;
78752;SDS011;68072;51.688;7.842;2023-09-07T10:09:38;4.32;;;3.22;;
78752;SDS011;68072;51.688;7.842;2023-09-07T10:12:04;3.97;;;3.43;;
78752;SDS011;68072;51.688;7.842;2023-09-07T10:14:42;4.57;;;3.20;;
78752;SDS011;68072;51.688;7.842;2023-09-07T10:17:07;5.38;;;3.25;;
78752;SDS011;68072;51.688;7.842;2023-09-07T10:19:34;7.38;;;3.33;;
78752;SDS011;68072;51.688;7.842;2023-09-07T10:22:01;4.25;;;3.78;;
78752;SDS011;68072;51.688;7.842;2023-09-07T10:27:00;5.73;;;3.07;;
78752;SDS011;68072;51.688;7.842;2023-09-07T10:31:51;3.57;;;2.93;;
78752;SDS011;68072;51.688;7.842;2023-09-07T10:34:16;4.25;;;2.92;;
78752;SDS011;68072;51.688;7.842;2023-09-07T10:36:42;4.25;;;2.80;;
78752;SDS011;68072;51.688;7.842;2023-09-07T10:39:07;3.40;;;3.00;;
78752;SDS011;68072;51.688;7.842;2023-09-07T10:41:43;4.35;;;3.25;;
78752;SDS011;68072;51.688;7.842;2023-09-07T10:44:08;4.55;;;3.10;;
78752;SDS011;68072;51.688;7.842;2023-09-07T10:46:35;3.45;;;3.13;;
78752;SDS011;68072;51.688;7.842;2023-09-07T10:49:02;3.25;;;2.90;;
78752;SDS011;68072;51.688;7.842;2023-09-07T10:51:27;4.75;;;2.75;;
78752;SDS011;68072;51.688;7.842;2023-09-07T10:53:54;3.75;;;3.03;;
78752;SDS011;68072;51.688;7.842;2023-09-07T10:56:20;5.30;;;3.33;;
78752;SDS011;68072;51.688;7.842;2023-09-07T10:58:49;8.65;;;3.42;;
78752;SDS011;68072;51.688;7.842;2023-09-07T11:01:16;3.33;;;3.03;;
78752;SDS011;68072;51.688;7.842;2023-09-07T11:03:41;4.57;;;3.07;;
78752;SDS011;68072;51.688;7.842;2023-09-07T11:06:08;4.00;;;2.93;;
78752;SDS011;68072;51.688;7.842;2023-09-07T11:08:34;6.30;;;2.80;;
78752;SDS011;68072;51.688;7.842;2023-09-07T11:10:59;3.87;;;2.73;;
78752;SDS011;68072;51.688;7.842;2023-09-07T11:13:25;6.60;;;3.67;;
78752;SDS011;68072;51.688;7.842;2023-09-07T11:15:55;4.28;;;3.10;;
78752;SDS011;68072;51.688;7.842;2023-09-07T11:18:21;3.90;;;3.00;;
78752;SDS011;68072;51.688;7.842;2023-09-07T11:20:46;4.35;;;3.30;;
78752;SDS011;68072;51.688;7.842;2023-09-07T11:23:12;3.38;;;2.92;;
78752;SDS011;68072;51.688;7.842;2023-09-07T11:25:38;3.57;;;2.73;;
78752;SDS011;68072;51.688;7.842;2023-09-07T11:28:06;3.75;;;3.17;;
78752;SDS011;68072;51.688;7.842;2023-09-07T11:30:32;6.38;;;3.45;;
78752;SDS011;68072;51.688;7.842;2023-09-07T11:35:26;6.15;;;2.97;;
78752;SDS011;68072;51.688;7.842;2023-09-07T11:37:51;3.75;;;2.80;;
78752;SDS011;68072;51.688;7.842;2023-09-07T11:40:17;5.73;;;2.90;;
78752;SDS011;68072;51.688;7.842;2023-09-07T11:42:42;4.13;;;3.03;;
78752;SDS011;68072;51.688;7.842;2023-09-07T11:45:07;5.90;;;3.13;;
78752;SDS011;68072;51.688;7.842;2023-09-07T11:47:34;4.35;;;2.75;;
78752;SDS011;68072;51.688;7.842;2023-09-07T11:50:00;4.65;;;3.25;;
78752;SDS011;68072;51.688;7.842;2023-09-07T11:52:25;6.80;;;2.95;;
78752;SDS011;68072;51.688;7.842;2023-09-07T11:54:50;3.97;;;2.95;;
78752;SDS011;68072;51.688;7.842;2023-09-07T11:57:15;5.95;;;3.08;;
78752;SDS011;68072;51.688;7.842;2023-09-07T11:59:41;5.45;;;2.55;;
78752;SDS011;68072;51.688;7.842;2023-09-07T12:02:06;5.65;;;2.95;;
78752;SDS011;68072;51.688;7.842;2023-09-07T12:04:31;3.35;;;3.03;;
78752;SDS011;68072;51.688;7.842;2023-09-07T12:06:57;4.53;;;3.00;;
78752;SDS011;68072;51.688;7.842;2023-09-07T12:09:22;3.40;;;2.55;;
78752;SDS011;68072;51.688;7.842;2023-09-07T12:11:47;3.23;;;2.93;;
78752;SDS011;68072;51.688;7.842;2023-09-07T12:14:13;9.97;;;3.33;;
78752;SDS011;68072;51.688;7.842;2023-09-07T12:16:38;3.30;;;2.67;;
78752;SDS011;68072;51.688;7.842;2023-09-07T12:19:03;5.10;;;3.10;;
78752;SDS011;68072;51.688;7.842;2023-09-07T12:21:28;3.70;;;2.80;;
78752;SDS011;68072;51.688;7.842;2023-09-07T12:23:54;3.27;;;2.83;;
78752;SDS011;68072;51.688;7.842;2023-09-07T12:26:19;3.00;;;2.70;;
78752;SDS011;68072;51.688;7.842;2023-09-07T12:28:46;3.08;;;2.78;;
78752;SDS011;68072;51.688;7.842;2023-09-07T12:31:11;4.90;;;2.75;;
78752;SDS011;68072;51.688;7.842;2023-09-07T12:33:37;5.07;;;3.08;;
78752;SDS011;68072;51.688;7.842;2023-09-07T12:36:02;6.05;;;2.83;;
78752;SDS011;68072;51.688;7.842;2023-09-07T12:38:28;3.85;;;2.80;;
78752;SDS011;68072;51.688;7.842;2023-09-07T12:40:54;4.28;;;2.63;;
78752;SDS011;68072;51.688;7.842;2023-09-07T12:43:19;2.85;;;2.53;;
78752;SDS011;68072;51.688;7.842;2023-09-07T12:45:48;3.05;;;2.75;;
78752;SDS011;68072;51.688;7.842;2023-09-07T12:48:13;4.03;;;2.50;;
78752;SDS011;68072;51.688;7.842;2023-09-07T12:50:38;6.50;;;2.73;;
78752;SDS011;68072;51.688;7.842;2023-09-07T12:53:05;5.32;;;2.85;;
78752;SDS011;68072;51.688;7.842;2023-09-07T12:55:30;5.03;;;2.42;;
78752;SDS011;68072;51.688;7.842;2023-09-07T12:57:56;5.15;;;2.70;;
78752;SDS011;68072;51.688;7.842;2023-09-07T13:00:21;3.73;;;2.60;;
78752;SDS011;68072;51.688;7.842;2023-09-07T13:02:46;2.80;;;2.60;;
78752;SDS011;68072;51.688;7.842;2023-09-07T13:05:12;3.63;;;2.73;;
78752;SDS011;68072;51.688;7.842;2023-09-07T13:07:37;4.00;;;2.43;;
78752;SDS011;68072;51.688;7.842;2023-09-07T13:10:02;4.47;;;2.80;;
78752;SDS011;68072;51.688;7.842;2023-09-07T13:12:29;2.50;;;2.30;;
78752;SDS011;68072;51.688;7.842;2023-09-07T13:14:54;3.38;;;2.70;;
78752;SDS011;68072;51.688;7.842;2023-09-07T13:17:19;2.73;;;2.40;;
78752;SDS011;68072;51.688;7.842;2023-09-07T13:19:45;3.33;;;2.33;;
78752;SDS011;68072;51.688;7.842;2023-09-07T13:22:11;3.60;;;2.65;;
78752;SDS011;68072;51.688;7.842;2023-09-07T13:24:36;3.43;;;2.43;;
78752;SDS011;68072;51.688;7.842;2023-09-07T13:27:01;4.43;;;2.80;;
78752;SDS011;68072;51.688;7.842;2023-09-07T13:29:28;2.67;;;2.45;;
78752;SDS011;68072;51.688;7.842;2023-09-07T13:31:53;3.67;;;2.57;;
78752;SDS011;68072;51.688;7.842;2023-09-07T13:34:20;2.63;;;2.42;;
78752;SDS011;68072;51.688;7.842;2023-09-07T13:36:45;3.25;;;2.55;;
78752;SDS011;68072;51.688;7.842;2023-09-07T13:39:11;3.00;;;2.80;;
78752;SDS011;68072;51.688;7.842;2023-09-07T13:41:36;3.00;;;2.70;;
78752;SDS011;68072;51.688;7.842;2023-09-07T13:44:01;4.97;;;2.47;;
78752;SDS011;68072;51.688;7.842;2023-09-07T13:46:26;3.57;;;2.30;;
78752;SDS011;68072;51.688;7.842;2023-09-07T13:48:52;3.20;;;2.90;;
78752;SDS011;68072;51.688;7.842;2023-09-07T13:51:17;5.03;;;3.00;;
78752;SDS011;68072;51.688;7.842;2023-09-07T13:53:42;3.60;;;3.10;;
78752;SDS011;68072;51.688;7.842;2023-09-07T13:56:07;3.00;;;2.70;;
78752;SDS011;68072;51.688;7.842;2023-09-07T13:58:33;3.20;;;2.90;;
78752;SDS011;68072;51.688;7.842;2023-09-07T14:00:58;6.73;;;3.07;;
78752;SDS011;68072;51.688;7.842;2023-09-07T14:03:23;3.17;;;2.87;;
78752;SDS011;68072;51.688;7.842;2023-09-07T14:05:48;3.03;;;2.70;;
78752;SDS011;68072;51.688;7.842;2023-09-07T14:08:13;3.67;;;2.90;;
78752;SDS011;68072;51.688;7.842;2023-09-07T14:10:39;4.53;;;3.03;;
78752;SDS011;68072;51.688;7.842;2023-09-07T14:13:04;5.72;;;2.88;;
78752;SDS011;68072;51.688;7.842;2023-09-07T14:15:30;4.05;;;3.00;;
78752;SDS011;68072;51.688;7.842;2023-09-07T14:17:56;4.00;;;3.03;;
78752;SDS011;68072;51.688;7.842;2023-09-07T14:20:21;3.30;;;3.00;;
78752;SDS011;68072;51.688;7.842;2023-09-07T14:22:47;4.10;;;2.97;;
78752;SDS011;68072;51.688;7.842;2023-09-07T14:25:12;7.80;;;3.30;;
78752;SDS011;68072;51.688;7.842;2023-09-07T14:27:38;5.18;;;3.47;;
78752;SDS011;68072;51.688;7.842;2023-09-07T14:30:04;4.77;;;2.67;;
78752;SDS011;68072;51.688;7.842;2023-09-07T14:32:29;3.35;;;3.05;;
78752;SDS011;68072;51.688;7.842;2023-09-07T14:34:55;5.87;;;2.83;;
78752;SDS011;68072;51.688;7.842;2023-09-07T14:37:20;5.00;;;2.83;;
78752;SDS011;68072;51.688;7.842;2023-09-07T14:39:45;7.10;;;3.03;;
78752;SDS011;68072;51.688;7.842;2023-09-07T14:42:14;3.20;;;2.90;;
78752;SDS011;68072;51.688;7.842;2023-09-07T14:44:42;3.35;;;3.03;;
78752;SDS011;68072;51.688;7.842;2023-09-07T14:47:07;4.53;;;3.28;;
78752;SDS011;68072;51.688;7.842;2023-09-07T14:49:33;7.13;;;2.88;;
78752;SDS011;68072;51.688;7.842;2023-09-07T14:51:58;4.35;;;2.60;;
78752;SDS011;68072;51.688;7.842;2023-09-07T14:54:23;4.70;;;3.13;;
78752;SDS011;68072;51.688;7.842;2023-09-07T14:56:48;3.03;;;2.80;;
78752;SDS011;68072;51.688;7.842;2023-09-07T14:59:14;3.27;;;2.97;;
78752;SDS011;68072;51.688;7.842;2023-09-07T15:01:39;6.13;;;2.80;;
78752;SDS011;68072;51.688;7.842;2023-09-07T15:04:04;3.43;;;2.60;;
78752;SDS011;68072;51.688;7.842;2023-09-07T15:06:30;2.80;;;2.50;;
78752;SDS011;68072;51.688;7.842;2023-09-07T15:08:58;3.50;;;3.05;;